Harristown, IL (62537)

5:10 PM CST on March 03, 2015 (GMT -0600)
APPLEVILLE | Change Station
CLOSE
Current Station
Personal Weather Station
Location: Mt Auburn, IL
Elevation: 607 ft
Nearby Weather Stations

Elev 607 ft 39.80 °N, 89.14 °W | Updated 4 minutes ago

Overcast
Overcast
39.1 °F
Feels Like 39 °F
N
3.0
Wind Variable Wind from SW
Gusts 3.8 mph

Today
High -- | Low -- °F
--% Chance of Precip.
Yesterday
High -- | Low -- °F
Precip. -- in
6:26 AM 5:50 PM
Waxing Gibbous, 97% visible
Pressure 29.83 in
Visibility 5.0 miles
Clouds Overcast 800 ft
Windchill 39 °F
Dew Point 22 °F
Humidity 51%
Rainfall -999.00 in
Snow Depth Not available.
UV 0 out of 12
Pollen .50 out of 12
Air Quality Not available.
Flu Activity Not available.
METAR KDEC 032254Z 26008KT 5SM BR OVC008 04/03 A2981 RMK AO2 CIG 006V011 PRESRR SLP099 T00390028

More Conditions Fewer Conditions

Pressure 29.83 in
Visibility 5.0 miles
Clouds Overcast 800 ft
Windchill 39 °F
Dew Point 22 °F
Humidity 51%
Rainfall -999.00 in
Snow Depth Not available.
UV 0 out of 12
Pollen .50 out of 12
Air Quality Not available.
Flu Activity Not available.
METAR KDEC 032254Z 26008KT 5SM BR OVC008 04/03 A2981 RMK AO2 CIG 006V011 PRESRR SLP099 T00390028

More Conditions Fewer Conditions

10-Day Weather Forecast

Almanac

Astronomy

Mar. 03, 2015 Rise Set
Actual Time
Civil Twilight
Nautical Twilight
Astronomical Twilight
Moon
Length of Visible Light
Length of Day
Tomorrow will be .
, % of the Moon is Illuminated

Today's Extremes

State Highs State Lows

Community

WunderPhotos

Upload Photos

1,802,301 photos uploaded!

WunderBlogs® & News

Nearby

Air Quality

  Air Quality AQ Index Pollutant
Not available.

Snow Depth

Station Depth Elevation

Earthquake Activity

City Distance Mag. Time & Date
Minimum magnitude displayed is 2.5.

Coastal Water Temperatures

Place Temperature

Nearby Weather Stations